Navios Pollux — 3FPO2 — position and weather

sailwx.info

Track history (hours):
 
Tides and Currents Weather Stations Pressure Air Temp Water Temp Dewpoint Dewpoint Depression Visibility Wind Speed Wind Dir Waves Ship Positions

Navios Pollux

Last reported at 2016-Apr-19 05:15 UTC. Time now 2016-May-05 16:13 UTC.
Position S 33°02' E 017°59'.
Warning: this ship's position is 16 days out of date.

Length 292 m; draft 10.6 m.

Type: Cargo ship. MMSI: 370290000.

Date/timePositionNaut miles runAvg speedWind from/ knotsBaromVisibWave heightAir tempDewpointWater temp
2016-Apr-19 05:15S 33°02' E 017°59'0 0.0
2016-Apr-19 04:33S 33°02' E 017°59'0 0.0
2016-Apr-19 03:33S 33°02' E 017°59'0 0.0
2016-Apr-19 02:24S 33°02' E 017°59'0 0.0
2016-Apr-19 00:33S 33°02' E 017°59'0 0.0
2016-Apr-18 23:33S 33°02' E 017°59'0 0.0
2016-Apr-18 22:33S 33°02' E 017°59'0 0.0
2016-Apr-18 20:30S 33°02' E 017°59'0 0.0
2016-Apr-18 19:33S 33°02' E 017°59'0 0.0
2016-Apr-18 18:33S 33°02' E 017°59'9 4.1
2016-Apr-18 16:28S 33°06' E 017°50'14 7.1
2016-Apr-18 14:33S 32°56' E 017°40'9 9.2
2016-Apr-18 13:33S 32°47' E 017°44'  
2016-Apr-16 09:11S 33°44' E 018°07'7 9.9
2016-Apr-16 08:28S 33°50' E 018°13'  
2016-Apr-13 15:33S 33°34' E 030°17'11 9.4
2016-Apr-13 14:26S 33°31' E 030°29'8 9.2
2016-Apr-13 13:33S 33°28' E 030°38'12 9.3
2016-Apr-13 12:15S 33°23' E 030°51'  
Track history (hours):
 
Tides and Currents Weather Stations Pressure Air Temp Water Temp Dewpoint Dewpoint Depression Visibility Wind Speed Wind Dir Waves Ship Positions

Navios Pollux

Last reported at 2016-Apr-19 05:15 UTC. Time now 2016-May-05 16:13 UTC.
Position S 33°02' E 017°59'.
Warning: this ship's position is 16 days out of date.

Length 292 m; draft 10.6 m.

Type: Cargo ship. MMSI: 370290000.

Date/timePositionNaut miles runAvg speedWind from/ knotsBaromVisibWave heightAir tempDewpointWater temp
2016-Apr-19 05:15S 33°02' E 017°59'0 0.0
2016-Apr-19 04:33S 33°02' E 017°59'0 0.0
2016-Apr-19 03:33S 33°02' E 017°59'0 0.0
2016-Apr-19 02:24S 33°02' E 017°59'0 0.0
2016-Apr-19 00:33S 33°02' E 017°59'0 0.0
2016-Apr-18 23:33S 33°02' E 017°59'0 0.0
2016-Apr-18 22:33S 33°02' E 017°59'0 0.0
2016-Apr-18 20:30S 33°02' E 017°59'0 0.0
2016-Apr-18 19:33S 33°02' E 017°59'0 0.0
2016-Apr-18 18:33S 33°02' E 017°59'9 4.1
2016-Apr-18 16:28S 33°06' E 017°50'14 7.1
2016-Apr-18 14:33S 32°56' E 017°40'9 9.2
2016-Apr-18 13:33S 32°47' E 017°44'  
2016-Apr-16 09:11S 33°44' E 018°07'7 9.9
2016-Apr-16 08:28S 33°50' E 018°13'  
2016-Apr-13 15:33S 33°34' E 030°17'11 9.4
2016-Apr-13 14:26S 33°31' E 030°29'8 9.2
2016-Apr-13 13:33S 33°28' E 030°38'12 9.3
2016-Apr-13 12:15S 33°23' E 030°51'  

Dump ship's entire track history